Terminal Aerodrome Forecast
Issued by NWS

Home | Current Version | Previous Version | Text Only | Print | Product List | Glossary On
Versions: 1 2 3 4 5 6 7 8 9 10 11 12 13
000
FTUS42 TJSJ 251739
TAFIST
TAF
TIST 251739Z 2518/2618 10015G20KT P6SM FEW035 FEW040
     FM252200 09010KT P6SM VCSH SCT022 BKN060
     FM261300 11013KT P6SM SCT025=

USA.gov is the U.S. government's official web portal to all federal, state and local government web resources and services.